Terminal Aerodrome Forecast
Issued by NWS

Home | Current Version | Previous Version | Graphics & Text | Print | Product List | Glossary On
Versions: 1 2 3 4 5 6 7 8 9 10 11 12 13 14 15 16 17 18 19 20
728
FTUS43 KMPX 291120
TAFRNH
TAF
KRNH 291120Z 2912/3012 02003KT P6SM BKN004
      TEMPO 2912/2914 SCT004
     FM291400 04005KT P6SM SCT008 SCT012
     FM291600 04007KT P6SM SCT060
     FM300000 VRB02KT P6SM SKC=

USA.gov is the U.S. government's official web portal to all federal, state and local government web resources and services.